Time;durP1;ratioP1;P1;durP2;ratioP2;P2;SDS_P1;SDS_P2;PMS_P1;PMS_P2;Temp;Humidity;BMP_temperature;BMP_pressure;BME280_temperature;BME280_humidity;BME280_pressure;Samples;Min_cycle;Max_cycle;Signal;HPM_P1;HPM_P2
2021/12/20 00:05:51;;;;;;;23.58;2.92;;;6.20;99.90;;;;;;5010772;28;20054;-78
2021/12/20 00:08:36;;;;;;;19.45;2.67;;;6.10;99.90;;;;;;4983384;28;20141;-78
2021/12/20 00:11:51;;;;;;;11.38;2.15;;;6.10;99.90;;;;;;4979407;28;20415;-78
2021/12/20 00:16:07;;;;;;;;;;;;;;;;;;;;;
2021/12/20 00:23:23;;;;;;;;;;;;;;;;;;;;;
2021/12/20 00:26:15;;;;;;;18.38;3.22;;;6.10;99.90;;;;;;4899608;29;20095;-78
2021/12/20 00:32:56;;;;;;;20.80;3.40;;;6.00;99.90;;;;;;4877913;29;20049;-78
2021/12/20 00:42:52;;;;;;;15.75;2.65;;;5.90;99.90;;;;;;4969813;28;20388;-78
2021/12/20 00:46:29;;;;;;;12.23;2.28;;;6.00;99.90;;;;;;4948297;28;20043;-78
2021/12/20 00:50:03;;;;;;;;;;;;;;;;;;;;;
2021/12/20 00:53:18;;;;;;;22.50;2.70;;;5.90;99.90;;;;;;4915180;29;20056;-79
2021/12/20 01:03:27;;;;;;;16.40;3.75;;;5.90;99.90;;;;;;4972962;28;20054;-79
2021/12/20 01:17:30;;;;;;;18.00;2.85;;;6.00;99.90;;;;;;4806627;29;20046;-78
2021/12/20 01:20:32;;;;;;;13.00;2.58;;;6.00;99.90;;;;;;4861007;29;20071;-78
2021/12/20 01:23:40;;;;;;;21.92;4.88;;;6.00;99.90;;;;;;4910726;29;20091;-79
2021/12/20 01:26:55;;;;;;;14.52;3.05;;;6.00;99.90;;;;;;4956794;28;20042;-79
2021/12/20 01:30:20;;;;;;;16.90;2.65;;;6.00;99.90;;;;;;4974274;28;20126;-79
2021/12/20 01:36:59;;;;;;;30.40;3.63;;;6.00;99.90;;;;;;4933080;29;20086;-79
2021/12/20 01:39:59;;;;;;;29.73;3.85;;;6.00;99.90;;;;;;4952689;28;20046;-78
2021/12/20 01:53:54;;;;;;;18.52;2.88;;;6.00;99.90;;;;;;4894943;29;20090;-78
2021/12/20 01:56:51;;;;;;;30.35;5.15;;;6.00;99.90;;;;;;4937850;28;20508;-78
2021/12/20 01:59:32;;;;;;;19.15;2.65;;;6.00;99.90;;;;;;4973990;28;20046;-78
2021/12/20 02:02:13;;;;;;;27.25;3.60;;;6.00;99.90;;;;;;4956674;28;20489;-78
2021/12/20 02:05:16;;;;;;;19.70;2.92;;;5.90;99.90;;;;;;4972719;28;20043;-78
2021/12/20 02:08:28;;;;;;;25.02;4.28;;;6.00;99.90;;;;;;4973613;28;20133;-78
2021/12/20 02:11:58;;;;;;;25.48;2.97;;;6.00;99.90;;;;;;4932784;29;20052;-78
2021/12/20 02:14:50;;;;;;;22.52;2.83;;;5.90;99.90;;;;;;4972651;28;20438;-78
2021/12/20 02:17:32;;;;;;;15.07;2.42;;;5.90;99.90;;;;;;4964545;28;20235;-78
2021/12/20 02:20:28;;;;;;;19.15;3.60;;;5.90;99.90;;;;;;4972704;28;20117;-78
2021/12/20 02:23:06;;;;;;;20.98;3.05;;;5.90;99.90;;;;;;4975942;28;20073;-80
2021/12/20 02:25:35;;;;;;;25.35;4.85;;;6.00;99.90;;;;;;4993865;28;20055;-79
2021/12/20 02:28:22;;;;;;;19.85;3.28;;;5.90;99.90;;;;;;4976866;28;20531;-79
2021/12/20 02:39:54;;;;;;;20.88;2.22;;;5.80;99.90;;;;;;4939899;29;20134;-79
2021/12/20 02:42:25;;;;;;;17.48;4.63;;;5.80;99.90;;;;;;4972118;28;20510;-79
2021/12/20 02:45:05;;;;;;;13.88;2.17;;;5.80;99.90;;;;;;4993272;28;20046;-79
2021/12/20 02:47:35;;;;;;;16.33;2.72;;;5.80;99.90;;;;;;4960789;28;20665;-79
2021/12/20 02:50:01;;;;;;;23.40;3.70;;;5.80;99.90;;;;;;4977479;28;20102;-79
2021/12/20 02:52:29;;;;;;;20.70;2.45;;;5.70;99.90;;;;;;4977131;28;20086;-79
2021/12/20 02:54:57;;;;;;;12.02;2.22;;;5.80;99.90;;;;;;4975996;28;20085;-79
2021/12/20 02:57:25;;;;;;;22.55;4.18;;;5.70;99.90;;;;;;4977095;28;20551;-79
2021/12/20 03:00:08;;;;;;;15.55;2.70;;;5.70;99.90;;;;;;4976432;28;20078;-79
2021/12/20 03:02:39;;;;;;;23.27;3.15;;;5.70;99.90;;;;;;4975718;28;20051;-79
2021/12/20 03:05:24;;;;;;;15.95;3.33;;;5.70;99.90;;;;;;4976968;28;20047;-80
2021/12/20 03:08:00;;;;;;;17.75;3.15;;;5.70;99.90;;;;;;4976894;28;20050;-79
2021/12/20 03:10:41;;;;;;;19.88;2.55;;;5.70;99.90;;;;;;4992773;28;20124;-79
2021/12/20 03:13:10;;;;;;;16.50;4.23;;;5.70;99.90;;;;;;4992507;28;20090;-79
2021/12/20 03:16:07;;;;;;;19.52;2.55;;;5.70;99.90;;;;;;4959881;28;20133;-79
2021/12/20 03:18:44;;;;;;;14.73;2.95;;;5.70;99.90;;;;;;4987187;28;20043;-79
2021/12/20 03:21:36;;;;;;;14.85;2.70;;;5.70;99.90;;;;;;5002854;28;20054;-79
2021/12/20 03:24:35;;;;;;;15.73;3.40;;;5.70;99.90;;;;;;4964754;28;20050;-79
2021/12/20 03:27:11;;;;;;;10.38;1.75;;;5.60;99.90;;;;;;4992251;28;20058;-79
2021/12/20 03:29:50;;;;;;;21.92;3.08;;;5.70;99.90;;;;;;4982475;28;20085;-79
2021/12/20 03:32:46;;;;;;;13.45;2.03;;;5.60;99.90;;;;;;4978190;28;20046;-80
2021/12/20 03:35:27;;;;;;;10.35;2.22;;;5.60;99.90;;;;;;4996137;28;20085;-80
2021/12/20 03:38:07;;;;;;;11.25;2.25;;;5.60;99.90;;;;;;4990717;28;20141;-80
2021/12/20 03:40:42;;;;;;;13.50;2.90;;;5.70;99.90;;;;;;4996485;28;20066;-80
2021/12/20 03:43:12;;;;;;;9.55;3.22;;;5.60;99.90;;;;;;4980742;28;20054;-80
2021/12/20 03:46:00;;;;;;;13.20;2.25;;;5.70;99.90;;;;;;4980272;28;20050;-81
2021/12/20 03:53:03;;;;;;;11.07;1.55;;;5.60;99.90;;;;;;4971511;28;20129;-80
2021/12/20 03:56:13;;;;;;;10.98;2.50;;;5.60;99.90;;;;;;4958572;28;20051;-80
2021/12/20 04:02:48;;;;;;;9.95;2.40;;;5.60;99.90;;;;;;4979543;28;20106;-80
2021/12/20 04:08:34;;;;;;;18.27;2.88;;;5.50;99.90;;;;;;4980457;28;20092;-80
2021/12/20 04:11:06;;;;;;;16.67;2.80;;;5.40;99.90;;;;;;4979519;28;20101;-81
2021/12/20 04:13:40;;;;;;;10.60;1.45;;;5.40;99.90;;;;;;4978896;28;20058;-81
2021/12/20 04:16:33;;;;;;;;;;;;;;;;;;;;;
2021/12/20 04:23:16;;;;;;;;;;;;;;;;;;;;;
2021/12/20 04:29:42;;;;;;;11.30;2.03;;;5.20;99.90;;;;;;4943683;29;20051;-82
2021/12/20 04:33:05;;;;;;;15.63;3.22;;;5.10;99.90;;;;;;4981260;28;20073;-82
2021/12/20 04:39:59;;;;;;;9.95;1.88;;;5.10;99.90;;;;;;4981753;28;20045;-80
2021/12/20 04:43:09;;;;;;;5.00;1.53;;;5.10;99.90;;;;;;4974540;28;20050;-80
2021/12/20 04:46:25;;;;;;;13.75;2.10;;;5.00;99.90;;;;;;4966548;28;20055;-80
2021/12/20 04:49:25;;;;;;;;;;;;;;;;;;;;;
2021/12/20 04:51:55;;;;;;;13.18;2.33;;;5.10;99.90;;;;;;4979508;28;20499;-80
2021/12/20 04:54:23;;;;;;;18.08;2.55;;;5.10;99.90;;;;;;4963870;28;20061;-80
2021/12/20 04:56:52;;;;;;;17.52;2.75;;;5.10;99.90;;;;;;4979466;28;20045;-80
2021/12/20 04:59:32;;;;;;;9.57;2.03;;;5.10;99.90;;;;;;4964276;28;20136;-79
2021/12/20 05:02:11;;;;;;;8.25;1.83;;;5.10;99.90;;;;;;4977113;28;20510;-79
2021/12/20 05:05:21;;;;;;;;;;;;;;;;;;;;;
2021/12/20 05:08:55;;;;;;;6.63;1.23;;;5.00;99.90;;;;;;4976817;28;20039;-79
2021/12/20 05:11:50;;;;;;;10.13;3.08;;;4.90;99.90;;;;;;4976843;28;20047;-79
2021/12/20 05:14:29;;;;;;;10.50;2.03;;;4.90;99.90;;;;;;4977195;28;20055;-79
2021/12/20 05:17:31;;;;;;;;;;;;;;;;;;;;;
2021/12/20 05:28:13;;;;;;;;;;;;;;;;;;;;;
2021/12/20 05:31:27;;;;;;;9.48;2.35;;;4.60;99.90;;;;;;4896758;29;20227;-80
2021/12/20 05:39:02;;;;;;;13.73;2.60;;;4.50;99.90;;;;;;4754849;30;20115;-80
2021/12/20 05:41:49;;;;;;;19.08;1.98;;;4.40;99.90;;;;;;4802349;29;20066;-80
2021/12/20 05:44:39;;;;;;;9.60;1.95;;;4.30;99.90;;;;;;4869200;29;20068;-78
2021/12/20 06:01:13;;;;;;;10.15;1.92;;;3.90;99.90;;;;;;4978172;28;20046;-78
2021/12/20 06:03:39;;;;;;;9.43;1.52;;;3.80;99.90;;;;;;4964110;28;20101;-78
2021/12/20 06:06:11;;;;;;;12.75;2.67;;;3.70;99.90;;;;;;4994342;28;20438;-78
2021/12/20 06:08:53;;;;;;;13.20;2.17;;;3.60;99.90;;;;;;4976647;28;20503;-79
2021/12/20 06:12:23;;;;;;;7.70;1.75;;;3.50;99.90;;;;;;4959354;28;20130;-79
2021/12/20 06:15:24;;;;;;;14.13;1.90;;;3.40;99.90;;;;;;4974814;28;20043;-78
2021/12/20 06:18:55;;;;;;;17.77;2.05;;;3.30;99.90;;;;;;4963913;28;20051;-78
2021/12/20 06:22:12;;;;;;;4.63;1.10;;;3.20;99.90;;;;;;4975032;28;20050;-78
2021/12/20 06:28:04;;;;;;;11.82;2.63;;;3.10;99.90;;;;;;4961460;28;20078;-79
2021/12/20 06:30:30;;;;;;;16.25;2.42;;;3.00;99.90;;;;;;4958226;28;20063;-79
2021/12/20 06:32:56;;;;;;;11.52;1.88;;;2.90;99.90;;;;;;4975484;28;20047;-79
2021/12/20 06:35:21;;;;;;;12.30;3.15;;;2.80;99.90;;;;;;4992695;28;20070;-79
2021/12/20 06:37:58;;;;;;;6.38;1.95;;;2.80;99.90;;;;;;4975434;28;20079;-79
2021/12/20 06:40:23;;;;;;;6.88;1.85;;;2.80;99.90;;;;;;4974442;28;20057;-78
2021/12/20 06:42:49;;;;;;;13.43;2.60;;;2.80;99.90;;;;;;4972723;28;20121;-77
2021/12/20 06:45:14;;;;;;;8.10;1.80;;;2.70;99.90;;;;;;4971832;28;20058;-77
2021/12/20 06:47:40;;;;;;;7.57;1.90;;;2.70;99.90;;;;;;4955643;28;20047;-77
2021/12/20 06:50:06;;;;;;;10.73;1.75;;;2.70;99.90;;;;;;4987788;28;20089;-77
2021/12/20 06:52:32;;;;;;;6.45;1.50;;;2.70;99.90;;;;;;4971846;28;20074;-77
2021/12/20 06:54:57;;;;;;;10.05;1.95;;;2.60;99.90;;;;;;4955543;28;20081;-77
2021/12/20 06:57:23;;;;;;;8.48;1.52;;;2.60;99.90;;;;;;4987930;28;20043;-77
2021/12/20 06:59:48;;;;;;;5.68;1.55;;;2.50;99.90;;;;;;4971934;28;20050;-77
2021/12/20 07:02:14;;;;;;;4.80;1.67;;;2.50;99.90;;;;;;4971713;28;20484;-78
2021/12/20 07:04:43;;;;;;;6.40;3.00;;;2.50;99.90;;;;;;4975341;28;20049;-81
2021/12/20 07:08:22;;;;;;;6.38;1.13;;;2.50;99.90;;;;;;4984439;28;20499;-79
2021/12/20 07:11:56;;;;;;;9.15;1.67;;;2.70;99.90;;;;;;4975723;28;20042;-78
2021/12/20 07:15:01;;;;;;;15.45;1.95;;;2.80;99.90;;;;;;4989002;28;20579;-79
2021/12/20 07:17:27;;;;;;;13.30;4.20;;;2.80;99.90;;;;;;4977273;28;20531;-79
2021/12/20 07:20:01;;;;;;;19.42;3.38;;;2.80;99.90;;;;;;4978085;28;20503;-79
2021/12/20 07:22:27;;;;;;;8.55;1.38;;;2.80;99.90;;;;;;4962117;28;20042;-79
2021/12/20 07:24:53;;;;;;;10.13;2.20;;;2.60;99.90;;;;;;4978502;28;20039;-79
2021/12/20 07:27:19;;;;;;;9.95;1.55;;;2.50;99.90;;;;;;4977808;28;20491;-79
2021/12/20 07:29:46;;;;;;;11.63;2.30;;;2.30;99.90;;;;;;4977844;28;20074;-78
2021/12/20 07:32:12;;;;;;;9.05;2.38;;;2.20;99.90;;;;;;4963404;28;20074;-80
2021/12/20 07:34:38;;;;;;;9.00;1.63;;;2.20;99.90;;;;;;4979766;28;20081;-81
2021/12/20 07:37:05;;;;;;;10.63;1.63;;;2.20;99.90;;;;;;4981369;28;20042;-80
2021/12/20 07:39:31;;;;;;;6.53;1.80;;;2.30;99.90;;;;;;4997472;28;20076;-80
2021/12/20 07:41:57;;;;;;;9.52;1.92;;;2.30;99.90;;;;;;4997106;28;20051;-80
2021/12/20 07:44:23;;;;;;;15.45;2.42;;;2.20;99.90;;;;;;4981877;28;20042;-79
2021/12/20 07:46:49;;;;;;;9.77;1.75;;;2.20;99.90;;;;;;4980739;28;20043;-79
2021/12/20 07:49:15;;;;;;;5.07;1.95;;;2.00;99.90;;;;;;4982855;28;20487;-79
2021/12/20 07:51:41;;;;;;;14.23;3.70;;;2.00;99.90;;;;;;4981592;28;20035;-79
2021/12/20 07:54:07;;;;;;;8.27;2.33;;;1.90;99.90;;;;;;4979306;28;20344;-80
2021/12/20 07:56:33;;;;;;;11.80;2.10;;;1.90;99.90;;;;;;4964557;28;20042;-79
2021/12/20 07:58:58;;;;;;;17.58;2.20;;;1.90;99.90;;;;;;4979684;28;20379;-80
2021/12/20 08:01:24;;;;;;;9.13;1.60;;;2.10;99.90;;;;;;4979869;28;20054;-80
2021/12/20 08:03:50;;;;;;;7.95;1.83;;;2.10;99.90;;;;;;4979408;28;20041;-78
2021/12/20 08:06:16;;;;;;;8.73;3.08;;;2.00;99.90;;;;;;4962543;28;20146;-78
2021/12/20 08:08:42;;;;;;;10.23;1.77;;;2.10;99.90;;;;;;4978468;28;20070;-78
2021/12/20 08:11:07;;;;;;;9.13;2.35;;;2.10;99.90;;;;;;4961942;28;20050;-78
2021/12/20 08:13:33;;;;;;;10.05;2.10;;;2.10;99.90;;;;;;4962378;28;20038;-78
2021/12/20 08:15:59;;;;;;;8.88;1.63;;;2.00;99.90;;;;;;4960452;28;20487;-79
2021/12/20 08:18:25;;;;;;;12.32;1.88;;;1.90;99.90;;;;;;4977506;28;20114;-79
2021/12/20 08:20:51;;;;;;;10.05;2.25;;;1.90;99.90;;;;;;4978712;28;20090;-81
2021/12/20 08:23:17;;;;;;;12.52;1.67;;;1.90;99.90;;;;;;4980167;28;20126;-81
2021/12/20 08:25:43;;;;;;;10.23;1.60;;;1.80;99.90;;;;;;4980852;28;20039;-81
2021/12/20 08:28:10;;;;;;;12.13;1.73;;;1.80;99.90;;;;;;4979066;28;20046;-80
2021/12/20 08:30:36;;;;;;;13.50;2.38;;;1.80;99.90;;;;;;4981123;28;20045;-81
2021/12/20 08:33:01;;;;;;;6.80;1.45;;;2.00;99.90;;;;;;4980921;28;20050;-81
2021/12/20 08:35:27;;;;;;;5.22;1.75;;;1.90;99.90;;;;;;4980513;28;20098;-80
2021/12/20 08:37:58;;;;;;;10.90;2.67;;;2.00;99.90;;;;;;4980581;28;20050;-81
2021/12/20 08:40:23;;;;;;;6.72;2.33;;;2.10;99.90;;;;;;4978073;28;20078;-81
2021/12/20 08:42:49;;;;;;;9.90;1.63;;;2.10;99.90;;;;;;4980258;28;20042;-82
2021/12/20 08:45:17;;;;;;;6.00;1.73;;;2.20;99.90;;;;;;4980710;28;20039;-82
2021/12/20 08:47:42;;;;;;;8.57;1.52;;;2.30;99.90;;;;;;4979422;28;20073;-81
2021/12/20 08:50:13;;;;;;;6.10;1.50;;;2.20;99.90;;;;;;4979868;28;20712;-80
2021/12/20 08:52:39;;;;;;;6.07;1.30;;;2.30;99.90;;;;;;4962677;28;20074;-81
2021/12/20 08:55:06;;;;;;;8.43;1.75;;;2.50;99.90;;;;;;4978340;28;20093;-80
2021/12/20 08:57:31;;;;;;;8.55;1.73;;;2.60;99.90;;;;;;4979612;28;20039;-80
2021/12/20 08:59:57;;;;;;;10.77;1.67;;;2.80;99.90;;;;;;4962040;28;20047;-81
2021/12/20 09:02:23;;;;;;;4.97;1.38;;;2.90;99.90;;;;;;4978364;28;20129;-81
2021/12/20 09:04:49;;;;;;;7.85;2.88;;;3.10;99.90;;;;;;4978670;28;20042;-80
2021/12/20 09:07:16;;;;;;;5.22;1.50;;;3.20;99.90;;;;;;4975244;28;20070;-79
2021/12/20 09:09:46;;;;;;;11.40;1.95;;;3.30;99.90;;;;;;4976830;28;20093;-80
2021/12/20 09:12:13;;;;;;;10.98;2.10;;;3.30;99.90;;;;;;4977782;28;20110;-81
2021/12/20 09:14:38;;;;;;;8.05;1.90;;;3.40;99.90;;;;;;4960718;28;20131;-80
2021/12/20 09:17:05;;;;;;;5.65;1.52;;;3.50;99.90;;;;;;4976411;28;20081;-80
2021/12/20 09:19:30;;;;;;;9.05;1.40;;;3.60;99.90;;;;;;4978227;28;20038;-81
2021/12/20 09:21:56;;;;;;;11.55;2.20;;;3.80;99.90;;;;;;4965562;28;20039;-81
2021/12/20 09:24:22;;;;;;;7.30;2.38;;;4.10;99.90;;;;;;4987004;28;20077;-81
2021/12/20 09:26:48;;;;;;;9.00;2.33;;;4.40;99.90;;;;;;4968177;28;20043;-80
2021/12/20 09:29:13;;;;;;;14.07;4.35;;;4.80;99.90;;;;;;4966065;28;20045;-81
2021/12/20 09:31:39;;;;;;;39.65;17.13;;;5.30;99.90;;;;;;4981709;28;20054;-80
2021/12/20 09:34:05;;;;;;;12.60;2.75;;;5.90;99.90;;;;;;4980772;28;20051;-80
2021/12/20 09:36:33;;;;;;;21.65;4.13;;;6.30;99.90;;;;;;4967293;28;20039;-81
2021/12/20 09:38:59;;;;;;;17.80;6.10;;;6.60;99.90;;;;;;4989559;28;20099;-81
2021/12/20 09:44:09;;;;;;;11.02;4.45;;;7.10;99.90;;;;;;4990475;28;20051;-82
2021/12/20 09:46:35;;;;;;;12.95;4.20;;;7.30;99.90;;;;;;4962001;28;20054;-82
2021/12/20 09:49:02;;;;;;;21.30;4.88;;;7.60;99.90;;;;;;4979603;28;20518;-83
2021/12/20 09:51:27;;;;;;;16.98;4.35;;;7.70;99.90;;;;;;4979968;28;20054;-82
2021/12/20 09:53:55;;;;;;;18.60;4.97;;;7.80;99.90;;;;;;4979048;28;20435;-83
2021/12/20 09:56:24;;;;;;;20.30;4.80;;;7.70;99.90;;;;;;4962090;28;20050;-83
2021/12/20 09:58:52;;;;;;;23.48;7.05;;;7.40;99.90;;;;;;4975348;28;20118;-83
2021/12/20 10:01:20;;;;;;;30.80;7.93;;;6.90;99.90;;;;;;4978195;28;20047;-82
2021/12/20 10:03:46;;;;;;;17.20;7.13;;;6.60;99.90;;;;;;4963227;28;20047;-83
2021/12/20 10:06:12;;;;;;;17.48;6.80;;;6.30;99.90;;;;;;4962832;28;20047;-82
2021/12/20 10:08:48;;;;;;;20.45;4.30;;;6.00;99.90;;;;;;4963119;28;20046;-82
2021/12/20 10:11:22;;;;;;;29.33;6.90;;;5.70;99.90;;;;;;4978924;28;20089;-82
2021/12/20 10:13:48;;;;;;;19.30;4.30;;;5.50;99.90;;;;;;4962763;28;20407;-82
2021/12/20 10:16:22;;;;;;;18.35;4.35;;;5.40;99.90;;;;;;4978335;28;20491;-83
2021/12/20 10:18:48;;;;;;;19.75;4.45;;;5.30;99.90;;;;;;4962412;28;20093;-82
2021/12/20 10:21:15;;;;;;;19.70;4.22;;;5.30;99.90;;;;;;4962173;28;20069;-82
2021/12/20 10:23:48;;;;;;;18.17;3.63;;;5.20;99.90;;;;;;4962151;28;20126;-82
2021/12/20 10:26:20;;;;;;;19.88;4.47;;;5.10;99.90;;;;;;4978255;28;20081;-83
2021/12/20 10:28:52;;;;;;;14.35;3.50;;;5.10;99.90;;;;;;4962613;28;20125;-83
2021/12/20 10:31:19;;;;;;;;;;;5.10;99.90;;;;;;4979387;28;20043;-83
2021/12/20 10:34:02;;;;;;;12.32;3.17;;;5.10;99.90;;;;;;4978290;28;19922;-82
2021/12/20 10:36:28;;;;;;;18.92;3.28;;;5.10;99.90;;;;;;4961737;28;20034;-82
2021/12/20 10:38:59;;;;;;;15.25;3.67;;;5.10;99.90;;;;;;4984658;28;20045;-81
2021/12/20 10:41:36;;;;;;;11.45;2.58;;;5.10;99.90;;;;;;4987225;28;20046;-80
2021/12/20 10:44:14;;;;;;;28.50;3.83;;;5.20;99.90;;;;;;4986904;28;20043;-80
2021/12/20 10:46:47;;;;;;;15.57;3.13;;;5.20;99.90;;;;;;4986197;28;20042;-80
2021/12/20 10:49:14;;;;;;;14.48;3.10;;;5.20;99.90;;;;;;4987858;28;20042;-81
2021/12/20 10:51:51;;;;;;;14.45;2.70;;;5.30;99.90;;;;;;4986887;28;20050;-80
2021/12/20 10:54:20;;;;;;;21.52;4.22;;;5.30;99.90;;;;;;4986572;28;20043;-81
2021/12/20 10:56:58;;;;;;;10.00;3.00;;;5.30;99.90;;;;;;4986701;28;20046;-81
2021/12/20 10:59:25;;;;;;;13.73;3.95;;;5.30;99.90;;;;;;4986810;28;20043;-81
2021/12/20 11:02:45;;;;;;;17.90;2.75;;;5.30;99.90;;;;;;4986822;28;20046;-80
2021/12/20 11:04:48;;;;;;;10.73;2.10;;;5.30;99.90;;;;;;4986636;28;20142;-81
2021/12/20 11:09:52;;;;;;;11.07;3.58;;;5.40;99.90;;;;;;4983533;28;20090;-83
2021/12/20 11:12:26;;;;;;;16.35;2.60;;;5.40;99.90;;;;;;4978802;28;20043;-82
2021/12/20 11:14:56;;;;;;;13.07;3.60;;;5.40;99.90;;;;;;4978649;28;20039;-84
2021/12/20 11:17:23;;;;;;;12.00;2.67;;;5.40;99.90;;;;;;4977610;28;20415;-83
2021/12/20 11:19:53;;;;;;;10.07;3.05;;;5.40;99.90;;;;;;4978717;28;20050;-84
2021/12/20 11:22:27;;;;;;;10.73;2.58;;;5.40;99.90;;;;;;4978696;28;20385;-83
2021/12/20 11:24:57;;;;;;;7.18;2.40;;;5.40;99.90;;;;;;4978638;28;20125;-83
2021/12/20 11:27:35;;;;;;;9.73;2.15;;;5.50;99.90;;;;;;4978290;28;20134;-83
2021/12/20 11:30:14;;;;;;;12.68;2.78;;;5.50;99.90;;;;;;4977757;28;20402;-83
2021/12/20 11:32:41;;;;;;;9.32;1.95;;;5.50;99.90;;;;;;4977928;28;20489;-82
2021/12/20 11:35:07;;;;;;;9.80;2.00;;;5.60;99.90;;;;;;4978750;28;20039;-83
2021/12/20 11:37:33;;;;;;;8.88;2.92;;;5.60;99.90;;;;;;4978352;28;20582;-83
2021/12/20 11:40:03;;;;;;;6.80;1.33;;;5.60;99.90;;;;;;4977623;28;20039;-83
2021/12/20 11:42:29;;;;;;;7.57;1.90;;;5.70;99.90;;;;;;4978558;28;20047;-83
2021/12/20 11:44:58;;;;;;;8.15;2.53;;;5.80;99.90;;;;;;4978177;28;20045;-83
2021/12/20 11:47:26;;;;;;;5.47;1.80;;;5.80;99.90;;;;;;4962560;28;20043;-83
2021/12/20 11:50:03;;;;;;;9.70;2.50;;;5.80;99.90;;;;;;4964050;28;20043;-83
2021/12/20 11:52:34;;;;;;;10.63;1.92;;;5.80;99.90;;;;;;4965452;28;20038;-83
2021/12/20 11:55:21;;;;;;;9.95;1.80;;;5.80;99.90;;;;;;4965946;28;20042;-83
2021/12/20 11:57:50;;;;;;;6.10;2.25;;;5.90;99.90;;;;;;4981708;28;20443;-82
2021/12/20 12:00:31;;;;;;;12.30;2.20;;;6.00;99.90;;;;;;4966181;28;20035;-83
2021/12/20 12:03:14;;;;;;;5.03;1.45;;;6.00;99.90;;;;;;4965374;28;20092;-83
2021/12/20 12:05:51;;;;;;;4.68;2.20;;;6.10;99.90;;;;;;4983780;28;20130;-81
2021/12/20 12:08:42;;;;;;;5.82;1.33;;;6.10;99.90;;;;;;4990483;28;20045;-81
2021/12/20 12:11:08;;;;;;;12.77;2.28;;;6.10;99.90;;;;;;4991139;28;20051;-81
2021/12/20 12:13:47;;;;;;;7.68;1.70;;;6.20;99.90;;;;;;4990712;28;20046;-81
2021/12/20 12:16:28;;;;;;;7.97;1.77;;;6.20;99.90;;;;;;4990124;28;20051;-81
2021/12/20 12:18:56;;;;;;;1.75;0.60;;;6.20;99.90;;;;;;4990601;28;20054;-81
2021/12/20 12:24:00;;;;;;;4.60;1.05;;;6.40;99.90;;;;;;4989875;28;20098;-81
2021/12/20 12:26:32;;;;;;;4.97;1.23;;;6.40;99.90;;;;;;4989829;28;20035;-81
2021/12/20 12:28:59;;;;;;;4.13;1.13;;;6.50;99.90;;;;;;4974656;28;20071;-80
2021/12/20 12:31:26;;;;;;;2.33;0.70;;;6.50;99.90;;;;;;4973707;28;20042;-81
2021/12/20 12:34:06;;;;;;;3.20;0.98;;;6.60;99.90;;;;;;4990323;28;20102;-81
2021/12/20 12:36:39;;;;;;;3.60;0.63;;;6.60;99.90;;;;;;4990314;28;20053;-81
2021/12/20 12:39:27;;;;;;;2.47;0.60;;;6.60;99.90;;;;;;4989405;28;20547;-81
2021/12/20 12:42:01;;;;;;;1.15;0.40;;;6.60;99.90;;;;;;4980049;28;20070;-81
2021/12/20 12:44:28;;;;;;;0.88;0.30;;;6.60;99.90;;;;;;4980895;28;20118;-81
2021/12/20 12:47:34;;;;;;;0.57;0.50;;;6.70;99.90;;;;;;4964853;28;20043;-81
2021/12/20 12:50:00;;;;;;;3.33;0.93;;;6.60;92.60;;;;;;4981340;28;20035;-81
2021/12/20 12:52:26;;;;;;;2.28;0.20;;;6.60;99.90;;;;;;4978975;28;20062;-81
2021/12/20 12:55:08;;;;;;;1.48;0.52;;;6.60;99.90;;;;;;4978939;28;20050;-81
2021/12/20 12:57:38;;;;;;;;;;;6.70;97.80;;;;;;4979947;28;20101;-81
2021/12/20 13:00:04;;;;;;;1.27;0.60;;;6.80;81.40;;;;;;4980000;28;19918;-81
2021/12/20 13:02:30;;;;;;;0.98;0.25;;;6.70;99.80;;;;;;4962547;28;20074;-81
2021/12/20 13:05:05;;;;;;;2.35;0.57;;;6.80;99.90;;;;;;4979824;28;20043;-81
2021/12/20 13:07:34;;;;;;;1.70;0.43;;;6.70;99.90;;;;;;4980452;28;20054;-80
2021/12/20 13:10:04;;;;;;;0.40;0.30;;;6.70;97.00;;;;;;4964371;28;20423;-80
2021/12/20 13:15:29;;;;;;;2.03;0.70;;;6.60;97.90;;;;;;4981734;28;20047;-80
2021/12/20 13:17:59;;;;;;;1.45;0.55;;;6.50;98.50;;;;;;4980407;28;20039;-81
2021/12/20 13:20:36;;;;;;;1.88;0.38;;;6.50;97.80;;;;;;4980615;28;20419;-81
2021/12/20 13:23:32;;;;;;;2.58;0.40;;;6.50;92.80;;;;;;4980751;28;20431;-81
2021/12/20 13:26:05;;;;;;;0.28;0.20;;;6.50;93.30;;;;;;4968102;28;20093;-81
2021/12/20 13:28:43;;;;;;;2.72;1.00;;;6.50;98.20;;;;;;4964118;28;20057;-81
2021/12/20 13:31:26;;;;;;;1.40;0.35;;;6.40;98.20;;;;;;4980867;28;20133;-81
2021/12/20 13:33:55;;;;;;;1.35;0.20;;;6.30;94.00;;;;;;4963231;28;20039;-81
2021/12/20 13:36:35;;;;;;;3.60;0.50;;;6.30;98.60;;;;;;4978041;28;20074;-81
2021/12/20 13:39:09;;;;;;;2.25;1.20;;;6.30;95.30;;;;;;4978841;28;20570;-81
2021/12/20 13:41:38;;;;;;;2.10;0.57;;;6.30;96.90;;;;;;4962274;28;20090;-81
2021/12/20 13:44:14;;;;;;;2.83;0.40;;;6.20;96.80;;;;;;4961813;28;20065;-81
2021/12/20 13:46:46;;;;;;;3.05;0.90;;;6.30;96.30;;;;;;4977915;28;20046;-81
2021/12/20 13:49:14;;;;;;;1.58;1.23;;;6.20;96.00;;;;;;4978874;28;20074;-81
2021/12/20 13:51:45;;;;;;;2.55;0.60;;;6.20;95.40;;;;;;4963263;28;20118;-81
2021/12/20 13:54:23;;;;;;;2.90;0.43;;;6.20;96.00;;;;;;4979469;28;20039;-81
2021/12/20 13:57:14;;;;;;;2.38;0.80;;;6.20;94.30;;;;;;4962410;28;20053;-81
2021/12/20 13:59:47;;;;;;;3.35;1.27;;;6.10;94.20;;;;;;4978921;28;20536;-81
2021/12/20 14:02:16;;;;;;;3.25;1.30;;;6.10;97.40;;;;;;4980027;28;20034;-81
2021/12/20 14:04:45;;;;;;;2.55;0.70;;;6.00;97.00;;;;;;4979404;28;20185;-81
2021/12/20 14:07:32;;;;;;;3.85;1.50;;;6.00;97.00;;;;;;4979372;28;20070;-81
2021/12/20 14:10:00;;;;;;;7.30;1.00;;;6.00;94.10;;;;;;4979275;28;20042;-81
2021/12/20 14:12:36;;;;;;;6.53;0.90;;;6.00;97.10;;;;;;4979394;28;20101;-81
2021/12/20 14:15:05;;;;;;;2.75;0.90;;;5.90;96.40;;;;;;4979184;28;20074;-81
2021/12/20 14:18:06;;;;;;;4.63;0.80;;;5.90;96.00;;;;;;4978954;28;20126;-81
2021/12/20 14:21:13;;;;;;;3.35;0.90;;;5.80;95.00;;;;;;4965111;28;20050;-80
2021/12/20 14:23:47;;;;;;;2.38;0.85;;;5.80;97.50;;;;;;4925566;28;20400;-81
2021/12/20 14:26:25;;;;;;;5.72;1.90;;;5.70;98.50;;;;;;4977402;28;20046;-80
2021/12/20 14:28:53;;;;;;;5.68;1.48;;;5.60;98.90;;;;;;4976229;28;20061;-80
2021/12/20 14:31:36;;;;;;;4.07;1.13;;;5.50;99.60;;;;;;4976206;28;20042;-80
2021/12/20 14:34:04;;;;;;;8.95;1.83;;;5.40;99.30;;;;;;4976186;28;20050;-80
2021/12/20 14:36:38;;;;;;;2.17;1.45;;;5.30;99.70;;;;;;4976899;28;20051;-82
2021/12/20 14:39:12;;;;;;;3.13;1.20;;;5.20;99.90;;;;;;4978228;28;20049;-82
2021/12/20 14:41:41;;;;;;;2.38;1.10;;;5.10;99.90;;;;;;4961890;28;20090;-82
2021/12/20 14:44:24;;;;;;;4.10;1.25;;;5.00;99.90;;;;;;4978720;28;20047;-82
2021/12/20 14:47:16;;;;;;;2.92;1.13;;;4.90;99.90;;;;;;4978394;28;20070;-82
2021/12/20 14:49:49;;;;;;;1.40;0.73;;;4.90;99.90;;;;;;4978183;28;20482;-82
2021/12/20 14:52:17;;;;;;;1.65;0.65;;;4.80;99.90;;;;;;4976058;28;20038;-80
2021/12/20 14:54:45;;;;;;;2.80;0.80;;;4.70;99.90;;;;;;4959719;28;20121;-80
2021/12/20 14:57:19;;;;;;;1.80;1.35;;;4.50;99.90;;;;;;4958886;28;20035;-80
2021/12/20 14:59:51;;;;;;;6.07;0.82;;;4.40;99.90;;;;;;4976572;28;20042;-81
2021/12/20 15:02:25;;;;;;;1.90;0.73;;;4.30;99.90;;;;;;4974127;28;20357;-79
2021/12/20 15:04:52;;;;;;;1.90;0.50;;;4.10;99.90;;;;;;4973939;28;20042;-80
2021/12/20 15:07:17;;;;;;;2.35;1.05;;;4.00;99.90;;;;;;4973986;28;20542;-80
2021/12/20 15:09:43;;;;;;;1.20;0.57;;;3.90;99.90;;;;;;4971771;28;20125;-77
2021/12/20 15:12:09;;;;;;;1.85;0.68;;;3.90;99.90;;;;;;4971402;28;20034;-78
2021/12/20 15:14:34;;;;;;;3.25;0.68;;;3.80;99.90;;;;;;4971419;28;20093;-77
2021/12/20 15:17:00;;;;;;;3.50;0.82;;;3.70;99.90;;;;;;4971155;28;20039;-77
2021/12/20 15:19:26;;;;;;;1.70;0.65;;;3.60;99.90;;;;;;4971748;28;20049;-77
2021/12/20 15:21:52;;;;;;;4.40;1.38;;;3.50;99.90;;;;;;4971531;28;20050;-77
2021/12/20 15:24:18;;;;;;;3.13;0.88;;;3.40;99.90;;;;;;4972418;28;20101;-77
2021/12/20 15:26:44;;;;;;;4.30;1.60;;;3.30;99.90;;;;;;4974987;28;20089;-77
2021/12/20 15:29:09;;;;;;;5.22;0.80;;;3.20;99.90;;;;;;4958871;28;20458;-77
2021/12/20 15:31:37;;;;;;;4.07;0.60;;;3.00;99.90;;;;;;4975008;28;20054;-77
2021/12/20 15:34:04;;;;;;;7.40;1.25;;;2.90;99.90;;;;;;4975029;28;20477;-76
2021/12/20 15:36:29;;;;;;;3.97;0.90;;;2.80;99.90;;;;;;4974553;28;20047;-78
2021/12/20 15:38:56;;;;;;;2.45;0.75;;;2.80;99.90;;;;;;4975230;28;20173;-77
2021/12/20 15:41:23;;;;;;;0.98;0.52;;;2.70;99.90;;;;;;4975194;28;20034;-78
2021/12/20 15:43:49;;;;;;;3.25;1.45;;;2.70;99.90;;;;;;4974737;28;20063;-78
2021/12/20 15:46:14;;;;;;;2.67;0.77;;;2.60;99.90;;;;;;4958354;28;20125;-78
2021/12/20 15:48:40;;;;;;;3.38;0.75;;;2.60;99.90;;;;;;4984279;28;20042;-80
2021/12/20 15:51:05;;;;;;;2.30;0.80;;;2.60;99.90;;;;;;4979189;28;20043;-82
2021/12/20 15:53:32;;;;;;;3.50;1.15;;;2.50;99.90;;;;;;4981559;28;20050;-81
2021/12/20 15:56:06;;;;;;;3.42;1.58;;;2.40;99.90;;;;;;4980106;28;20081;-80
2021/12/20 15:58:33;;;;;;;4.20;0.80;;;2.30;99.90;;;;;;4976331;28;20035;-82
2021/12/20 16:01:00;;;;;;;3.92;1.13;;;2.30;99.90;;;;;;4958652;28;20046;-82